Decoded Metar for KMIC (MNPLS/CRYSTAL in MN, USA) (IATA:MIC) | Meteo·Mobile Aviation Weather
aviador You're here:

KMIC Decoded Metar

MNPLS/CRYSTAL in MN, USA
Report Time2019-02-17 15:53:00
UTC Time2019-02-17 16:06:57
Flight Rules mvfr MVFR
Wind040° at 08 kt
W.Decomp.*RWY 06: 7.4 kt HW 3 kt LCW
RWY 32: 1.7 kt HW 7.8 kt RCW
W.Rank040° ranks 31
Current wind is above 040° avg. (5.8)
Visibility6437 m
Phenomena:Light Snow
Clouds:Overcast 023 Hf
Expected CloudBase > 1,600 ft AGL from Temp-Dew spread
Ceiling2,300 ft
Temp-7°C (ISA -20)
Dew Point-11°C (73% RH)
AAT-13.0°C
QNH1017 hPa
Density Alt-1,739 ft
Elevation869 ft
Report Wrong Elevation
Raw Report
KMIC 171553Z 04008KT 4SM -SN OVC023 M07/M11 A3002 RMK AO2 SNB22
SLP181 P0000 T10671106=

Extra information for KMIC:More info

Metar Taf Metar & Taf Last 4 Metars F.Rules Stats Wind Profile Meteogram Temp Stats Airport Information Weather charts Add Link Nearby VenuesMetar ALERT Operation Metar Decoded Social comments

AIRNAV info for KMIC